createdAt,value
2017-10-24T00:01:33.590Z,12.60
2017-10-24T00:03:59.997Z,11.53
2017-10-24T00:06:26.436Z,12.23
2017-10-24T00:08:53.592Z,12.13
2017-10-24T00:11:20.061Z,12.13
2017-10-24T00:13:47.950Z,11.90
2017-10-24T00:16:14.348Z,12.80
2017-10-24T00:18:41.153Z,12.67
2017-10-24T00:21:07.585Z,12.90
2017-10-24T00:23:33.976Z,12.33
2017-10-24T00:26:00.412Z,12.17
2017-10-24T00:28:26.890Z,12.00
2017-10-24T00:30:53.325Z,13.40
2017-10-24T00:33:19.710Z,13.30
2017-10-24T00:35:46.116Z,12.20
2017-10-24T00:38:13.491Z,13.20
2017-10-24T00:40:39.920Z,13.77
2017-10-24T00:43:06.337Z,12.87
2017-10-24T00:45:32.810Z,13.20
2017-10-24T00:47:59.986Z,11.90
2017-10-24T00:50:26.449Z,12.10
2017-10-24T00:52:52.851Z,12.57
2017-10-24T00:55:19.826Z,13.10
2017-10-24T00:57:46.253Z,13.13
2017-10-24T01:00:12.686Z,13.07
2017-10-24T01:02:39.124Z,14.03
2017-10-24T01:05:05.558Z,13.80
2017-10-24T01:07:31.957Z,12.60
2017-10-24T01:09:58.396Z,12.73
2017-10-24T01:12:24.824Z,14.00
2017-10-24T01:14:51.296Z,12.40
2017-10-24T01:17:17.757Z,12.43
2017-10-24T01:19:44.228Z,13.50
2017-10-24T01:22:10.698Z,12.47
2017-10-24T01:24:37.206Z,13.43
2017-10-24T01:27:03.730Z,13.37
2017-10-24T01:29:30.216Z,14.30
2017-10-24T01:31:56.767Z,13.30
2017-10-24T01:34:23.270Z,12.30
2017-10-24T01:36:49.715Z,11.63
2017-10-24T01:39:16.162Z,14.53
2017-10-24T01:41:42.669Z,13.07
2017-10-24T01:44:09.103Z,13.40
2017-10-24T01:46:35.516Z,13.33
2017-10-24T01:49:01.960Z,13.60
2017-10-24T01:51:28.379Z,12.67
2017-10-24T01:53:54.820Z,14.40
2017-10-24T01:56:21.281Z,14.50
2017-10-24T01:58:47.714Z,14.03
2017-10-24T02:01:14.200Z,14.47
2017-10-24T02:03:40.632Z,14.40
2017-10-24T02:06:07.092Z,14.80
2017-10-24T02:08:33.584Z,12.10
2017-10-24T02:11:00.036Z,13.80
2017-10-24T02:13:26.497Z,15.90
2017-10-24T02:15:53.037Z,12.97
2017-10-24T02:18:19.470Z,14.00
2017-10-24T02:20:46.688Z,13.37
2017-10-24T02:23:13.835Z,13.70
2017-10-24T02:25:40.251Z,12.97
2017-10-24T02:28:07.447Z,14.00
2017-10-24T02:30:34.651Z,12.80
2017-10-24T02:33:01.819Z,14.40
2017-10-24T02:35:28.269Z,12.40
2017-10-24T02:37:54.697Z,12.57
2017-10-24T02:40:21.091Z,13.87
2017-10-24T02:42:47.534Z,13.83
2017-10-24T02:45:14.733Z,12.43
2017-10-24T02:47:41.912Z,13.53
2017-10-24T02:50:08.361Z,14.83
2017-10-24T02:52:34.790Z,12.43
2017-10-24T02:55:01.258Z,14.40
2017-10-24T02:57:27.665Z,13.60
2017-10-24T02:59:54.121Z,13.33
2017-10-24T03:02:20.510Z,13.40
2017-10-24T03:04:46.892Z,14.50
2017-10-24T03:07:13.317Z,13.83
2017-10-24T03:09:40.448Z,14.70
2017-10-24T03:12:07.616Z,12.57
2017-10-24T03:14:34.035Z,14.50
2017-10-24T03:17:01.206Z,14.30
2017-10-24T03:19:27.790Z,14.23
2017-10-24T03:21:54.237Z,13.63
2017-10-24T03:24:21.417Z,15.37
2017-10-24T03:26:47.800Z,15.60
2017-10-24T03:29:14.256Z,18.20
2017-10-24T03:31:40.644Z,16.20
2017-10-24T03:34:07.053Z,16.17
2017-10-24T03:36:33.512Z,16.00
2017-10-24T03:38:59.912Z,16.80
2017-10-24T03:41:26.513Z,16.30
2017-10-24T03:43:54.368Z,18.83
2017-10-24T03:46:20.801Z,15.53
2017-10-24T03:48:47.221Z,16.07
2017-10-24T03:51:13.611Z,16.73
2017-10-24T03:53:40.072Z,17.50
2017-10-24T03:56:06.510Z,16.60
2017-10-24T03:58:32.900Z,16.50
2017-10-24T04:01:00.028Z,18.53
2017-10-24T04:03:26.445Z,18.50
2017-10-24T04:05:52.855Z,15.07
2017-10-24T04:08:19.257Z,18.10
2017-10-24T04:10:45.695Z,16.10
2017-10-24T04:13:12.130Z,16.40
2017-10-24T04:15:38.523Z,15.40
2017-10-24T04:18:06.394Z,15.47
2017-10-24T04:20:32.815Z,15.23
2017-10-24T04:22:59.235Z,16.80
2017-10-24T04:25:25.672Z,16.60
2017-10-24T04:27:52.108Z,15.67
2017-10-24T04:30:20.006Z,14.30
2017-10-24T04:32:47.170Z,15.13
2017-10-24T04:35:13.632Z,16.00
2017-10-24T04:37:40.114Z,15.60
2017-10-24T04:40:07.263Z,15.00
2017-10-24T04:42:34.447Z,15.37
2017-10-24T04:45:00.874Z,14.90
2017-10-24T04:47:27.283Z,14.67
2017-10-24T04:49:54.427Z,15.87
2017-10-24T04:52:20.848Z,16.23
2017-10-24T04:54:48.730Z,13.63
2017-10-24T04:57:15.874Z,14.67
2017-10-24T04:59:42.310Z,15.30
2017-10-24T05:02:08.736Z,13.23
2017-10-24T05:04:35.174Z,13.13
2017-10-24T05:07:02.436Z,15.57
2017-10-24T05:09:29.645Z,15.17
2017-10-24T05:11:56.050Z,14.40
2017-10-24T05:14:22.507Z,13.87
2017-10-24T05:16:48.935Z,13.57
2017-10-24T05:19:15.356Z,14.50
2017-10-24T05:21:41.768Z,13.17
2017-10-24T05:24:08.195Z,12.67
2017-10-24T05:26:34.581Z,14.17
2017-10-24T05:29:00.980Z,13.00
2017-10-24T05:31:27.379Z,13.27
2017-10-24T05:33:54.518Z,12.63
2017-10-24T05:36:20.940Z,12.43
2017-10-24T05:38:48.821Z,12.00
2017-10-24T05:41:15.193Z,12.73
2017-10-24T05:43:41.674Z,13.30
2017-10-24T05:46:08.856Z,13.07
2017-10-24T05:48:36.048Z,13.90
2017-10-24T05:51:02.537Z,14.10
2017-10-24T05:53:29.655Z,13.50
2017-10-24T05:55:57.545Z,13.80
2017-10-24T05:58:24.664Z,13.60
2017-10-24T06:00:51.085Z,14.23
2017-10-24T06:03:17.518Z,13.67
2017-10-24T06:05:43.903Z,14.23
2017-10-24T06:08:11.041Z,13.50
2017-10-24T06:10:38.284Z,14.13
2017-10-24T06:13:05.437Z,15.17
2017-10-24T06:15:31.869Z,13.57
2017-10-24T06:17:58.306Z,14.03
2017-10-24T06:20:25.461Z,13.87
2017-10-24T06:22:52.596Z,13.60
2017-10-24T06:25:18.998Z,15.50
2017-10-24T06:27:45.401Z,13.40
2017-10-24T06:30:11.812Z,12.90
2017-10-24T06:32:39.051Z,11.60
2017-10-24T06:35:06.297Z,13.47
2017-10-24T06:37:32.704Z,14.33
2017-10-24T06:39:59.211Z,14.20
2017-10-24T06:42:25.668Z,13.60
2017-10-24T06:44:52.119Z,14.63
2017-10-24T06:47:18.562Z,15.93
2017-10-24T06:49:44.956Z,14.90
2017-10-24T06:52:11.461Z,16.43
2017-10-24T06:54:38.629Z,15.70
2017-10-24T06:57:05.113Z,15.80
2017-10-24T06:59:32.314Z,15.60
2017-10-24T07:01:58.768Z,17.60
2017-10-24T07:04:25.201Z,17.30
2017-10-24T07:06:51.590Z,17.50
2017-10-24T07:09:18.763Z,17.90
2017-10-24T07:11:45.181Z,18.57
2017-10-24T07:14:11.664Z,17.70
2017-10-24T07:16:39.553Z,17.37
2017-10-24T07:19:05.986Z,18.90
2017-10-24T07:21:33.128Z,18.77
2017-10-24T07:23:59.545Z,18.10
2017-10-24T07:26:25.960Z,17.23
2017-10-24T07:28:52.356Z,18.57
2017-10-24T07:31:18.815Z,18.53
2017-10-24T07:33:45.208Z,16.77
2017-10-24T07:36:12.387Z,18.60
2017-10-24T07:38:38.778Z,18.30
2017-10-24T07:41:05.249Z,17.90
2017-10-24T07:43:31.775Z,18.37
2017-10-24T07:45:58.240Z,18.27
2017-10-24T07:48:24.642Z,17.13
2017-10-24T07:50:51.091Z,15.17
2017-10-24T07:53:17.567Z,18.47
2017-10-24T07:55:45.490Z,16.20
2017-10-24T07:58:11.932Z,14.50
2017-10-24T08:00:38.471Z,13.90
2017-10-24T08:03:04.947Z,14.37
2017-10-24T08:05:32.096Z,15.50
2017-10-24T08:07:59.277Z,15.90
2017-10-24T08:10:26.416Z,15.10
2017-10-24T08:12:53.554Z,15.20
2017-10-24T08:15:20.711Z,14.47
2017-10-24T08:17:47.844Z,14.67
2017-10-24T08:20:14.242Z,15.20
2017-10-24T08:22:40.719Z,14.20
2017-10-24T08:25:07.115Z,15.70
2017-10-24T08:27:33.520Z,14.77
2017-10-24T08:29:59.937Z,15.30
2017-10-24T08:32:26.340Z,14.37
2017-10-24T08:34:53.686Z,16.07
2017-10-24T08:37:20.092Z,15.80
2017-10-24T08:39:46.521Z,14.50
2017-10-24T08:42:12.994Z,13.00
2017-10-24T08:44:39.394Z,12.93
2017-10-24T08:47:05.805Z,13.27
2017-10-24T08:49:32.205Z,14.40
2017-10-24T08:51:59.449Z,14.33
2017-10-24T08:54:26.598Z,12.40
2017-10-24T08:56:53.789Z,12.97
2017-10-24T08:59:20.259Z,13.40
2017-10-24T09:01:46.725Z,12.63
2017-10-24T09:04:13.989Z,11.10
2017-10-24T09:06:40.609Z,9.40
2017-10-24T09:09:29.953Z,8.30
2017-10-24T09:12:16.957Z,9.00
2017-10-24T09:14:43.368Z,7.63
2017-10-24T09:17:35.848Z,8.00
2017-10-24T09:20:05.078Z,4.93
2017-10-24T09:22:32.212Z,5.53
2017-10-24T09:24:58.619Z,4.80
2017-10-24T09:27:25.103Z,4.97
2017-10-24T09:29:52.241Z,4.00
2017-10-24T09:32:19.469Z,4.63
2017-10-24T09:34:45.913Z,5.67
2017-10-24T09:37:12.374Z,5.73
2017-10-24T09:39:38.810Z,6.70
2017-10-24T09:42:05.241Z,8.03
2017-10-24T09:44:32.398Z,7.67
2017-10-24T09:46:58.824Z,9.00
2017-10-24T09:49:25.262Z,10.70
2017-10-24T09:51:51.681Z,10.03
2017-10-24T09:54:18.933Z,10.03
2017-10-24T09:56:46.201Z,10.80
2017-10-24T09:59:42.454Z,11.13
2017-10-24T10:02:09.734Z,11.67
2017-10-24T10:04:36.336Z,11.90
2017-10-24T10:07:11.580Z,12.53
2017-10-24T10:09:37.996Z,17.07
2017-10-24T10:12:08.465Z,14.70
2017-10-24T10:14:34.865Z,16.13
2017-10-24T10:17:01.258Z,15.77
2017-10-24T10:19:27.684Z,16.83
2017-10-24T10:21:54.123Z,16.67
2017-10-24T10:24:30.076Z,16.83
2017-10-24T10:26:56.516Z,17.50
2017-10-24T10:29:23.690Z,18.37
2017-10-24T10:31:50.138Z,17.40
2017-10-24T10:34:16.565Z,16.70
2017-10-24T10:36:43.810Z,17.20
2017-10-24T10:39:10.300Z,15.93
2017-10-24T10:41:36.702Z,15.63
2017-10-24T10:44:03.149Z,15.90
2017-10-24T10:46:29.594Z,15.93
2017-10-24T10:48:55.982Z,15.90
2017-10-24T10:51:22.405Z,13.87
2017-10-24T10:53:48.789Z,14.07
2017-10-24T10:56:15.199Z,13.00
2017-10-24T10:58:41.727Z,13.80
2017-10-24T11:01:08.183Z,13.10
2017-10-24T11:03:34.620Z,13.87
2017-10-24T11:06:01.086Z,13.27
2017-10-24T11:08:27.536Z,13.00
2017-10-24T11:10:54.661Z,11.73
2017-10-24T11:13:21.836Z,13.40
2017-10-24T11:15:48.235Z,12.63
2017-10-24T11:18:16.309Z,12.33
2017-10-24T11:20:42.760Z,12.70
2017-10-24T11:23:09.965Z,11.73
2017-10-24T11:25:36.363Z,12.07
2017-10-24T11:28:02.773Z,12.93
2017-10-24T11:30:29.944Z,12.50
2017-10-24T11:32:56.336Z,13.10
2017-10-24T11:35:22.777Z,11.90
2017-10-24T11:37:49.241Z,11.10
2017-10-24T11:40:15.683Z,10.27
2017-10-24T11:42:42.129Z,10.77
2017-10-24T11:45:08.575Z,10.10
2017-10-24T11:47:35.012Z,9.47
2017-10-24T11:50:01.472Z,10.63
2017-10-24T11:52:27.877Z,10.10
2017-10-24T11:54:54.269Z,10.83
2017-10-24T11:57:20.734Z,9.53
2017-10-24T11:59:47.135Z,8.47
2017-10-24T12:02:13.548Z,8.93
2017-10-24T12:04:39.970Z,8.43
2017-10-24T12:07:06.405Z,7.93
2017-10-24T12:09:32.835Z,7.70
2017-10-24T12:11:59.212Z,7.07
2017-10-24T12:14:25.633Z,9.33
2017-10-24T12:16:52.180Z,7.40
2017-10-24T12:19:18.594Z,7.40
2017-10-24T12:21:44.994Z,8.33
2017-10-24T12:24:11.396Z,7.83
2017-10-24T12:26:37.835Z,7.87
2017-10-24T12:29:04.271Z,8.33
2017-10-24T12:31:30.693Z,7.40
2017-10-24T12:33:57.102Z,6.53
2017-10-24T12:36:23.508Z,7.03
2017-10-24T12:38:50.705Z,6.03
2017-10-24T12:41:17.171Z,7.20
2017-10-24T12:43:44.122Z,7.87
2017-10-24T12:46:10.578Z,7.77
2017-10-24T12:48:37.758Z,7.93
2017-10-24T12:51:05.568Z,8.87
2017-10-24T12:53:32.009Z,8.40
2017-10-24T12:55:58.453Z,7.70
2017-10-24T12:58:41.458Z,7.23
2017-10-24T13:01:09.393Z,8.20
2017-10-24T13:03:35.828Z,9.03
2017-10-24T13:06:02.255Z,8.10
2017-10-24T13:08:28.742Z,7.57
2017-10-24T13:10:55.177Z,8.83
2017-10-24T13:13:22.340Z,9.30
2017-10-24T13:15:49.521Z,10.67
2017-10-24T13:18:16.026Z,9.60
2017-10-24T13:20:42.452Z,9.93
2017-10-24T13:23:09.764Z,8.20
2017-10-24T13:25:36.196Z,9.77
2017-10-24T13:28:02.939Z,9.50
2017-10-24T13:30:29.383Z,9.63
2017-10-24T13:32:55.831Z,9.67
2017-10-24T13:35:22.224Z,8.90
2017-10-24T13:37:48.697Z,10.80
2017-10-24T13:40:15.873Z,9.33
2017-10-24T13:42:42.285Z,9.20
2017-10-24T13:45:09.460Z,9.33
2017-10-24T13:47:35.870Z,9.93
2017-10-24T13:50:02.298Z,9.50
2017-10-24T13:52:29.444Z,9.07
2017-10-24T13:54:55.840Z,9.47
2017-10-24T13:57:22.233Z,10.20
2017-10-24T13:59:49.381Z,9.70
2017-10-24T14:02:15.841Z,9.53
2017-10-24T14:04:48.436Z,9.17
2017-10-24T14:07:20.998Z,8.37
2017-10-24T14:09:53.634Z,9.40
2017-10-24T14:12:20.088Z,9.50
2017-10-24T14:14:46.499Z,8.40
2017-10-24T14:17:13.638Z,9.00
2017-10-24T14:19:40.891Z,8.00
2017-10-24T14:22:08.032Z,10.03
2017-10-24T14:24:34.451Z,8.43
2017-10-24T14:27:00.841Z,8.50
2017-10-24T14:29:27.288Z,8.40
2017-10-24T14:31:53.692Z,8.30
2017-10-24T14:34:20.873Z,8.83
2017-10-24T14:36:47.306Z,8.57
2017-10-24T14:39:13.702Z,7.83
2017-10-24T14:41:40.866Z,9.70
2017-10-24T14:44:08.035Z,8.30
2017-10-24T14:46:34.455Z,8.80
2017-10-24T14:49:00.883Z,9.33
2017-10-24T14:51:27.334Z,7.87
2017-10-24T14:53:53.722Z,10.27
2017-10-24T14:56:21.619Z,8.20
2017-10-24T14:58:48.074Z,9.77
2017-10-24T15:01:14.475Z,7.97
2017-10-24T15:03:41.636Z,10.00
2017-10-24T15:06:08.042Z,9.23
2017-10-24T15:08:34.437Z,8.17
2017-10-24T15:11:00.867Z,8.73
2017-10-24T15:13:27.284Z,9.47
2017-10-24T15:15:53.717Z,7.30
2017-10-24T15:18:20.110Z,9.47
2017-10-24T15:20:47.315Z,8.20
2017-10-24T15:23:13.728Z,10.13
2017-10-24T15:25:40.132Z,10.67
2017-10-24T15:28:07.350Z,11.60
2017-10-24T15:30:33.771Z,11.47
2017-10-24T15:33:00.219Z,12.03
2017-10-24T15:35:27.415Z,10.60
2017-10-24T15:37:53.825Z,10.07
2017-10-24T15:40:21.056Z,10.10
2017-10-24T15:42:47.495Z,9.90
2017-10-24T15:45:14.005Z,10.30
2017-10-24T15:47:40.441Z,9.63
2017-10-24T15:50:06.837Z,11.63
2017-10-24T15:52:33.240Z,12.37
2017-10-24T15:54:59.651Z,11.30
2017-10-24T15:57:26.027Z,9.63
2017-10-24T15:59:52.446Z,10.30
2017-10-24T16:02:19.616Z,11.20
2017-10-24T16:04:46.044Z,13.57
2017-10-24T16:07:12.439Z,13.07
2017-10-24T16:09:38.909Z,11.43
2017-10-24T16:12:05.305Z,12.80
2017-10-24T16:14:31.697Z,12.07
2017-10-24T16:16:58.131Z,13.00
2017-10-24T16:19:24.571Z,11.70
2017-10-24T16:21:51.124Z,12.93
2017-10-24T16:24:17.530Z,11.43
2017-10-24T16:26:43.934Z,13.00
2017-10-24T16:29:11.115Z,11.83
2017-10-24T16:31:37.572Z,11.70
2017-10-24T16:34:03.989Z,11.30
2017-10-24T16:36:30.443Z,10.10
2017-10-24T16:38:56.938Z,12.40
2017-10-24T16:41:23.772Z,74.37
2017-10-24T16:43:50.194Z,39.80
2017-10-24T16:46:16.612Z,132.80
2017-10-24T16:48:43.801Z,82.33
2017-10-24T16:51:10.222Z,137.60
2017-10-24T16:53:36.632Z,24.40
2017-10-24T16:56:03.769Z,55.20
2017-10-24T16:58:30.173Z,83.73
2017-10-24T17:00:56.618Z,23.70
2017-10-24T17:03:23.037Z,20.80
2017-10-24T17:05:49.437Z,16.67
2017-10-24T17:08:15.820Z,15.47
2017-10-24T17:10:42.248Z,13.50
2017-10-24T17:13:08.715Z,32.23
2017-10-24T17:15:35.198Z,37.63
2017-10-24T17:18:01.598Z,19.93
2017-10-24T17:20:28.072Z,13.10
2017-10-24T17:22:54.492Z,15.77
2017-10-24T17:25:20.874Z,48.17
2017-10-24T17:27:48.026Z,53.60
2017-10-24T17:30:15.196Z,38.73
2017-10-24T17:32:41.593Z,19.20
2017-10-24T17:35:08.026Z,17.37
2017-10-24T17:37:34.431Z,16.53
2017-10-24T17:40:00.864Z,19.57
2017-10-24T17:42:27.291Z,18.20
2017-10-24T17:44:53.822Z,15.87
2017-10-24T17:47:20.239Z,16.83
2017-10-24T17:49:46.633Z,16.40
2017-10-24T17:52:13.778Z,14.83
2017-10-24T17:54:40.954Z,16.33
2017-10-24T17:57:07.346Z,33.80
2017-10-24T17:59:33.752Z,37.83
2017-10-24T18:02:00.136Z,28.77
2017-10-24T18:04:27.280Z,19.80
2017-10-24T18:06:53.653Z,15.10
2017-10-24T18:09:20.098Z,16.83
2017-10-24T18:11:48.080Z,36.80
2017-10-24T18:14:14.526Z,34.77
2017-10-24T18:16:40.925Z,16.10
2017-10-24T18:19:07.308Z,41.33
2017-10-24T18:21:33.708Z,19.20
2017-10-24T18:24:00.155Z,13.90
2017-10-24T18:26:26.560Z,17.37
2017-10-24T18:28:53.002Z,17.67
2017-10-24T18:31:19.420Z,13.43
2017-10-24T18:33:45.811Z,15.23
2017-10-24T18:36:12.941Z,15.00
2017-10-24T18:38:40.844Z,15.20
2017-10-24T18:41:07.247Z,13.53
2017-10-24T18:43:33.723Z,16.60
2017-10-24T18:46:00.215Z,15.13
2017-10-24T18:48:26.729Z,14.50
2017-10-24T18:50:53.317Z,15.40
2017-10-24T18:53:19.773Z,15.83
2017-10-24T18:55:46.238Z,14.30
2017-10-24T18:58:14.182Z,14.83
2017-10-24T19:00:40.653Z,13.77
2017-10-24T19:03:08.592Z,18.87
2017-10-24T19:05:35.061Z,18.03
2017-10-24T19:08:02.277Z,18.00
2017-10-24T19:10:28.761Z,16.90
2017-10-24T19:12:55.986Z,17.33
2017-10-24T19:15:23.196Z,16.20
2017-10-24T19:17:49.609Z,15.53
2017-10-24T19:20:16.039Z,17.20
2017-10-24T19:22:42.487Z,15.83
2017-10-24T19:25:08.865Z,15.10
2017-10-24T19:27:36.756Z,15.73
2017-10-24T19:30:03.937Z,14.80
2017-10-24T19:32:31.086Z,60.77
2017-10-24T19:34:57.520Z,16.40
2017-10-24T19:37:23.944Z,19.63
2017-10-24T19:39:50.402Z,16.93
2017-10-24T19:42:16.797Z,14.97
2017-10-24T19:44:43.945Z,14.70
2017-10-24T19:47:10.355Z,17.87
2017-10-24T19:49:36.828Z,14.40
2017-10-24T19:52:03.281Z,16.03
2017-10-24T19:54:29.805Z,14.97
2017-10-24T19:56:56.197Z,14.47
2017-10-24T19:59:22.618Z,14.80
2017-10-24T20:01:49.825Z,15.70
2017-10-24T20:04:16.284Z,15.57
2017-10-24T20:06:42.700Z,17.10
2017-10-24T20:09:09.130Z,17.40
2017-10-24T20:11:35.544Z,15.23
2017-10-24T20:14:02.015Z,15.83
2017-10-24T20:16:28.467Z,15.83
2017-10-24T20:18:55.638Z,15.33
2017-10-24T20:21:22.786Z,14.90
2017-10-24T20:23:49.904Z,15.60
2017-10-24T20:26:16.323Z,15.07
2017-10-24T20:28:42.717Z,15.53
2017-10-24T20:31:09.133Z,14.40
2017-10-24T20:33:36.305Z,13.53
2017-10-24T20:36:02.746Z,15.60
2017-10-24T20:38:29.174Z,16.97
2017-10-24T20:40:55.578Z,15.80
2017-10-24T20:43:22.780Z,16.73
2017-10-24T20:45:49.205Z,15.80
2017-10-24T20:48:15.605Z,20.10
2017-10-24T20:50:42.748Z,18.80
2017-10-24T20:53:09.901Z,17.67
2017-10-24T20:55:37.054Z,15.40
2017-10-24T20:58:03.585Z,17.27
2017-10-24T21:00:30.762Z,15.87
2017-10-24T21:02:57.158Z,15.67
2017-10-24T21:05:24.298Z,17.33
2017-10-24T21:07:52.212Z,15.90
2017-10-24T21:10:18.630Z,14.47
2017-10-24T21:12:45.064Z,16.03
2017-10-24T21:15:11.516Z,16.83
2017-10-24T21:17:37.936Z,15.57
2017-10-24T21:20:04.378Z,18.00
2017-10-24T21:22:30.794Z,16.37
2017-10-24T21:24:57.200Z,16.20
2017-10-24T21:27:23.641Z,16.03
2017-10-24T21:29:50.786Z,15.23
2017-10-24T21:32:17.201Z,14.93
2017-10-24T21:34:43.585Z,15.50
2017-10-24T21:37:09.944Z,16.10
2017-10-24T21:39:37.084Z,15.00
2017-10-24T21:42:04.214Z,14.83
2017-10-24T21:44:30.711Z,14.47
2017-10-24T21:46:57.118Z,16.70
2017-10-24T21:49:23.540Z,16.57
2017-10-24T21:51:49.919Z,16.40
2017-10-24T21:54:17.093Z,16.70
2017-10-24T21:56:43.504Z,15.43
2017-10-24T21:59:10.604Z,17.23
2017-10-24T22:01:37.272Z,18.33
2017-10-24T22:04:03.664Z,16.73
2017-10-24T22:06:30.063Z,17.43
2017-10-24T22:08:58.129Z,14.70
2017-10-24T22:11:25.263Z,16.43
2017-10-24T22:13:51.665Z,17.17
2017-10-24T22:16:18.056Z,18.30
2017-10-24T22:18:44.528Z,16.40
2017-10-24T22:21:10.962Z,16.13
2017-10-24T22:23:37.363Z,18.50
2017-10-24T22:26:03.797Z,17.70
2017-10-24T22:28:30.301Z,15.67
2017-10-24T22:30:57.427Z,14.50
2017-10-24T22:33:23.832Z,15.90
2017-10-24T22:35:50.248Z,17.97
2017-10-24T22:38:16.633Z,15.70
2017-10-24T22:40:43.752Z,16.17
2017-10-24T22:43:10.150Z,15.53
2017-10-24T22:45:36.632Z,16.60
2017-10-24T22:48:03.069Z,16.67
2017-10-24T22:50:29.474Z,16.40
2017-10-24T22:52:55.930Z,15.10
2017-10-24T22:55:22.331Z,19.87
2017-10-24T22:57:48.724Z,19.50
2017-10-24T23:00:15.934Z,17.40
2017-10-24T23:02:42.492Z,18.00
2017-10-24T23:05:10.415Z,18.40
2017-10-24T23:07:36.892Z,17.47
2017-10-24T23:10:04.047Z,18.73
2017-10-24T23:12:31.216Z,17.77
2017-10-24T23:14:58.354Z,18.20
2017-10-24T23:17:26.219Z,16.90
2017-10-24T23:19:52.657Z,15.30
2017-10-24T23:22:19.106Z,20.43
2017-10-24T23:24:45.520Z,17.73
2017-10-24T23:27:11.950Z,18.47
2017-10-24T23:29:38.385Z,16.80
2017-10-24T23:32:04.765Z,17.00
2017-10-24T23:34:31.129Z,15.40
2017-10-24T23:36:57.565Z,17.90
2017-10-24T23:39:23.979Z,14.53
2017-10-24T23:41:50.374Z,14.93
2017-10-24T23:44:16.765Z,16.10
2017-10-24T23:46:43.158Z,14.13
2017-10-24T23:49:09.573Z,16.67
2017-10-24T23:51:36.002Z,17.87
2017-10-24T23:54:02.436Z,16.30
2017-10-24T23:56:29.542Z,13.80
2017-10-24T23:58:57.419Z,14.43
